createdAt,value
2017-12-31T00:01:52.021Z,50.32
2017-12-31T00:04:17.992Z,50.52
2017-12-31T00:06:43.956Z,50.44
2017-12-31T00:09:09.890Z,50.78
2017-12-31T00:11:35.862Z,50.55
2017-12-31T00:14:01.946Z,50.30
2017-12-31T00:16:27.876Z,50.73
2017-12-31T00:18:53.839Z,50.95
2017-12-31T00:21:19.786Z,50.81
2017-12-31T00:23:45.758Z,50.91
2017-12-31T00:26:11.726Z,51.08
2017-12-31T00:28:37.668Z,50.70
2017-12-31T00:31:03.622Z,50.65
2017-12-31T00:33:29.589Z,50.87
2017-12-31T00:35:55.545Z,50.95
2017-12-31T00:38:21.520Z,50.98
2017-12-31T00:40:47.470Z,50.91
2017-12-31T00:43:13.445Z,50.44
2017-12-31T00:45:39.402Z,50.66
2017-12-31T00:48:05.367Z,50.49
2017-12-31T00:50:31.324Z,50.83
2017-12-31T00:52:57.305Z,50.72
2017-12-31T00:55:23.258Z,50.90
2017-12-31T00:57:49.193Z,50.60
2017-12-31T01:00:15.137Z,50.77
2017-12-31T01:02:41.088Z,51.04
2017-12-31T01:05:07.042Z,51.51
2017-12-31T01:07:32.990Z,51.54
2017-12-31T01:09:58.953Z,51.44
2017-12-31T01:12:24.915Z,51.30
2017-12-31T01:14:50.869Z,51.23
2017-12-31T01:17:16.823Z,51.31
2017-12-31T01:19:42.935Z,51.40
2017-12-31T01:22:08.886Z,51.29
2017-12-31T01:24:34.837Z,51.34
2017-12-31T01:27:00.802Z,51.32
2017-12-31T01:29:26.761Z,51.40
2017-12-31T01:31:52.733Z,51.09
2017-12-31T01:34:18.681Z,51.18
2017-12-31T01:36:44.635Z,51.25
2017-12-31T01:39:10.582Z,51.37
2017-12-31T01:41:36.533Z,51.16
2017-12-31T01:44:02.493Z,51.36
2017-12-31T01:46:29.486Z,51.41
2017-12-31T01:48:55.439Z,51.17
2017-12-31T01:51:21.386Z,51.26
2017-12-31T01:53:47.508Z,51.46
2017-12-31T01:56:13.437Z,51.34
2017-12-31T01:58:39.397Z,51.49
2017-12-31T02:01:05.350Z,51.45
2017-12-31T02:03:31.289Z,51.50
2017-12-31T02:05:57.303Z,51.27
2017-12-31T02:08:23.209Z,51.33
2017-12-31T02:10:49.145Z,51.59
2017-12-31T02:13:15.113Z,51.58
2017-12-31T02:15:41.064Z,51.42
2017-12-31T02:18:07.061Z,51.57
2017-12-31T02:20:33.009Z,51.41
2017-12-31T02:22:58.973Z,51.37
2017-12-31T02:25:24.950Z,51.38
2017-12-31T02:27:50.909Z,51.49
2017-12-31T02:30:16.879Z,51.59
2017-12-31T02:32:42.837Z,51.75
2017-12-31T02:35:08.786Z,51.46
2017-12-31T02:37:34.753Z,51.61
2017-12-31T02:40:00.846Z,51.34
2017-12-31T02:42:26.804Z,51.62
2017-12-31T02:44:52.737Z,51.59
2017-12-31T02:47:18.679Z,51.48
2017-12-31T02:49:44.649Z,51.73
2017-12-31T02:52:10.591Z,51.56
2017-12-31T02:54:36.538Z,51.48
2017-12-31T02:57:02.481Z,51.55
2017-12-31T02:59:28.426Z,51.65
2017-12-31T03:01:54.368Z,51.81
2017-12-31T03:04:20.320Z,51.65
2017-12-31T03:06:46.281Z,51.62
2017-12-31T03:09:12.257Z,51.39
2017-12-31T03:11:38.209Z,51.11
2017-12-31T03:14:04.164Z,51.12
2017-12-31T03:16:30.109Z,51.14
2017-12-31T03:18:56.061Z,51.48
2017-12-31T03:21:22.003Z,51.42
2017-12-31T03:23:48.078Z,51.19
2017-12-31T03:26:14.021Z,50.90
2017-12-31T03:28:39.970Z,51.37
2017-12-31T03:31:05.914Z,51.31
2017-12-31T03:33:31.874Z,51.40
2017-12-31T03:35:57.817Z,51.30
2017-12-31T03:38:23.786Z,51.43
2017-12-31T03:40:49.735Z,51.32
2017-12-31T03:43:15.689Z,51.72
2017-12-31T03:45:41.624Z,51.34
2017-12-31T03:48:07.584Z,51.62
2017-12-31T03:50:33.528Z,51.62
2017-12-31T03:52:59.466Z,51.44
2017-12-31T03:55:25.409Z,51.97
2017-12-31T03:57:51.368Z,51.29
2017-12-31T04:00:17.328Z,51.04
2017-12-31T04:02:43.265Z,51.10
2017-12-31T04:05:09.220Z,51.15
2017-12-31T04:07:35.205Z,51.33
2017-12-31T04:10:01.351Z,51.50
2017-12-31T04:12:27.498Z,51.12
2017-12-31T04:14:53.485Z,50.92
2017-12-31T04:17:19.425Z,51.26
2017-12-31T04:19:45.372Z,51.12
2017-12-31T04:22:11.318Z,51.07
2017-12-31T04:24:37.265Z,51.40
2017-12-31T04:27:03.206Z,51.66
2017-12-31T04:29:29.151Z,51.79
2017-12-31T04:31:55.107Z,51.54
2017-12-31T04:34:21.090Z,51.87
2017-12-31T04:36:47.052Z,51.71
2017-12-31T04:39:13.033Z,51.66
2017-12-31T04:41:39.074Z,51.82
2017-12-31T04:44:05.021Z,51.56
2017-12-31T04:46:30.971Z,51.32
2017-12-31T04:48:56.921Z,50.90
2017-12-31T04:51:22.949Z,51.15
2017-12-31T04:53:48.883Z,51.32
2017-12-31T04:56:14.839Z,51.29
2017-12-31T04:58:40.809Z,51.49
2017-12-31T05:01:06.754Z,50.97
2017-12-31T05:03:32.756Z,51.41
2017-12-31T05:05:58.724Z,51.30
2017-12-31T05:08:24.678Z,50.86
2017-12-31T05:10:50.626Z,51.21
2017-12-31T05:13:16.560Z,51.49
2017-12-31T05:15:42.505Z,51.52
2017-12-31T05:18:08.454Z,51.52
2017-12-31T05:20:34.422Z,51.35
2017-12-31T05:23:00.371Z,51.65
2017-12-31T05:25:26.309Z,51.67
2017-12-31T05:27:52.272Z,51.38
2017-12-31T05:30:18.213Z,51.78
2017-12-31T05:32:44.201Z,51.61
2017-12-31T05:35:10.143Z,51.47
2017-12-31T05:37:36.109Z,51.02
2017-12-31T05:40:02.117Z,51.10
2017-12-31T05:42:28.056Z,51.26
2017-12-31T05:44:54.017Z,51.40
2017-12-31T05:47:19.970Z,51.31
2017-12-31T05:49:45.921Z,51.20
2017-12-31T05:52:11.861Z,51.13
2017-12-31T05:54:37.810Z,51.31
2017-12-31T05:57:03.760Z,51.14
2017-12-31T05:59:29.728Z,51.40
2017-12-31T06:01:55.670Z,51.36
2017-12-31T06:04:21.738Z,51.58
2017-12-31T06:06:47.693Z,51.66
2017-12-31T06:09:13.681Z,51.63
2017-12-31T06:11:39.618Z,51.77
2017-12-31T06:14:05.573Z,51.55
2017-12-31T06:16:31.502Z,51.55
2017-12-31T06:18:57.454Z,51.56
2017-12-31T06:21:23.469Z,51.28
2017-12-31T06:23:49.409Z,51.17
2017-12-31T06:26:15.377Z,50.95
2017-12-31T06:28:41.330Z,50.72
2017-12-31T06:31:07.271Z,50.50
2017-12-31T06:33:33.216Z,50.71
2017-12-31T06:35:59.238Z,50.59
2017-12-31T06:38:25.198Z,50.64
2017-12-31T06:40:51.169Z,50.85
2017-12-31T06:43:17.125Z,50.84
2017-12-31T06:45:43.089Z,50.73
2017-12-31T06:48:09.048Z,50.79
2017-12-31T06:50:36.049Z,51.07
2017-12-31T06:53:02.050Z,50.89
2017-12-31T06:55:28.017Z,51.00
2017-12-31T06:57:53.956Z,50.85
2017-12-31T07:00:19.913Z,50.98
2017-12-31T07:02:45.894Z,50.96
2017-12-31T07:05:11.845Z,51.10
2017-12-31T07:07:37.801Z,50.73
2017-12-31T07:10:03.750Z,50.74
2017-12-31T07:12:29.692Z,50.56
2017-12-31T07:14:55.633Z,50.60
2017-12-31T07:17:21.609Z,50.70
2017-12-31T07:19:47.570Z,50.89
2017-12-31T07:22:13.509Z,50.93
2017-12-31T07:24:39.585Z,50.70
2017-12-31T07:27:05.517Z,50.41
2017-12-31T07:29:31.457Z,50.66
2017-12-31T07:31:57.420Z,50.73
2017-12-31T07:34:23.462Z,50.99
2017-12-31T07:36:49.419Z,50.72
2017-12-31T07:39:15.374Z,50.79
2017-12-31T07:41:41.334Z,50.81
2017-12-31T07:44:07.297Z,50.85
2017-12-31T07:46:33.257Z,50.78
2017-12-31T07:48:59.242Z,50.94
2017-12-31T07:51:25.196Z,51.11
2017-12-31T07:53:51.152Z,50.99
2017-12-31T07:56:17.095Z,51.02
2017-12-31T07:58:43.045Z,51.79
2017-12-31T08:01:08.982Z,51.47
2017-12-31T08:03:34.957Z,51.29
2017-12-31T08:06:00.940Z,51.46
2017-12-31T08:08:26.858Z,51.29
2017-12-31T08:10:52.809Z,51.13
2017-12-31T08:13:18.773Z,51.25
2017-12-31T08:15:44.812Z,51.15
2017-12-31T08:18:10.782Z,51.29
2017-12-31T08:20:36.748Z,51.29
2017-12-31T08:23:02.696Z,51.15
2017-12-31T08:25:28.650Z,51.28
2017-12-31T08:27:54.610Z,51.30
2017-12-31T08:30:20.586Z,51.29
2017-12-31T08:32:46.540Z,51.23
2017-12-31T08:35:12.496Z,51.38
2017-12-31T08:37:38.594Z,51.19
2017-12-31T08:40:04.545Z,51.07
2017-12-31T08:42:30.537Z,51.17
2017-12-31T08:44:56.502Z,51.13
2017-12-31T08:47:22.549Z,51.33
2017-12-31T08:49:48.501Z,51.19
2017-12-31T08:52:14.463Z,51.27
2017-12-31T08:54:40.429Z,51.05
2017-12-31T08:57:06.377Z,51.20
2017-12-31T08:59:32.319Z,51.17
2017-12-31T09:01:58.365Z,51.33
2017-12-31T09:04:24.311Z,51.32
2017-12-31T09:06:50.283Z,51.26
2017-12-31T09:09:16.226Z,51.21
2017-12-31T09:11:42.380Z,51.31
2017-12-31T09:14:08.328Z,51.23
2017-12-31T09:16:34.316Z,51.71
2017-12-31T09:19:00.263Z,52.03
2017-12-31T09:21:26.209Z,51.72
2017-12-31T09:23:52.158Z,51.43
2017-12-31T09:26:18.095Z,51.43
2017-12-31T09:28:44.070Z,50.84
2017-12-31T09:31:09.988Z,50.49
2017-12-31T09:33:35.954Z,50.75
2017-12-31T09:36:01.901Z,50.70
2017-12-31T09:38:27.885Z,50.66
2017-12-31T09:40:53.842Z,50.92
2017-12-31T09:43:19.990Z,51.15
2017-12-31T09:45:45.974Z,50.84
2017-12-31T09:48:11.909Z,50.83
2017-12-31T09:50:37.853Z,51.01
2017-12-31T09:53:03.830Z,51.22
2017-12-31T09:55:29.814Z,51.26
2017-12-31T09:57:55.769Z,51.28
2017-12-31T10:00:21.781Z,51.29
2017-12-31T10:02:47.744Z,51.24
2017-12-31T10:05:14.076Z,51.52
2017-12-31T10:07:40.032Z,51.36
2017-12-31T10:10:05.990Z,51.46
2017-12-31T10:12:31.937Z,51.49
2017-12-31T10:14:57.882Z,51.45
2017-12-31T10:17:23.853Z,51.68
2017-12-31T10:19:49.810Z,51.41
2017-12-31T10:22:15.753Z,51.49
2017-12-31T10:24:41.702Z,51.15
2017-12-31T10:27:09.780Z,51.09
2017-12-31T10:29:35.705Z,51.02
2017-12-31T10:32:01.774Z,51.66
2017-12-31T10:34:27.713Z,51.39
2017-12-31T10:36:53.666Z,51.15
2017-12-31T10:39:19.622Z,51.13
2017-12-31T10:41:45.615Z,50.85
2017-12-31T10:44:11.617Z,51.15
2017-12-31T10:46:37.532Z,51.28
2017-12-31T10:49:03.490Z,51.17
2017-12-31T10:51:29.458Z,51.57
2017-12-31T10:53:55.431Z,51.49
2017-12-31T10:56:21.409Z,51.40
2017-12-31T10:58:47.345Z,51.53
2017-12-31T11:01:13.345Z,51.77
2017-12-31T11:03:39.276Z,51.72
2017-12-31T11:06:05.259Z,51.96
2017-12-31T11:08:31.249Z,51.77
2017-12-31T11:10:57.209Z,51.74
2017-12-31T11:13:23.231Z,51.80
2017-12-31T11:15:49.191Z,51.67
2017-12-31T11:18:15.144Z,51.30
2017-12-31T11:20:41.087Z,51.52
2017-12-31T11:23:07.077Z,51.42
2017-12-31T11:25:33.040Z,51.19
2017-12-31T11:27:59.043Z,51.27
2017-12-31T11:30:26.070Z,51.55
2017-12-31T11:32:52.028Z,51.59
2017-12-31T11:35:18.119Z,51.78
2017-12-31T11:37:44.080Z,51.93
2017-12-31T11:40:10.028Z,51.97
2017-12-31T11:42:35.984Z,51.82
2017-12-31T11:45:01.954Z,51.81
2017-12-31T11:47:27.924Z,51.90
2017-12-31T11:49:53.905Z,51.82
2017-12-31T11:52:19.864Z,52.36
2017-12-31T11:54:45.822Z,52.18
2017-12-31T11:57:11.793Z,51.92
2017-12-31T11:59:37.761Z,51.70
2017-12-31T12:02:03.738Z,51.98
2017-12-31T12:04:29.699Z,52.06
2017-12-31T12:06:55.657Z,51.45
2017-12-31T12:09:21.627Z,51.82
2017-12-31T12:11:47.574Z,51.90
2017-12-31T12:14:13.577Z,52.48
2017-12-31T12:16:39.523Z,52.33
2017-12-31T12:19:05.476Z,52.67
2017-12-31T12:21:31.426Z,51.80
2017-12-31T12:23:57.385Z,51.48
2017-12-31T12:26:23.371Z,51.33
2017-12-31T12:28:49.325Z,51.52
2017-12-31T12:31:15.262Z,51.64
2017-12-31T12:33:41.239Z,51.80
2017-12-31T12:36:08.260Z,51.99
2017-12-31T12:38:34.238Z,51.88
2017-12-31T12:41:00.185Z,51.73
2017-12-31T12:43:26.150Z,51.68
2017-12-31T12:45:52.111Z,51.64
2017-12-31T12:48:20.210Z,51.66
2017-12-31T12:50:46.138Z,52.00
2017-12-31T12:53:12.113Z,51.82
2017-12-31T12:55:38.081Z,51.54
2017-12-31T12:58:04.029Z,51.51
2017-12-31T13:00:29.996Z,51.66
2017-12-31T13:02:55.945Z,51.76
2017-12-31T13:05:22.014Z,51.60
2017-12-31T13:07:48.137Z,51.65
2017-12-31T13:10:14.280Z,51.46
2017-12-31T13:12:40.433Z,51.62
2017-12-31T13:15:06.565Z,52.31
2017-12-31T13:17:32.540Z,51.87
2017-12-31T13:19:58.508Z,52.15
2017-12-31T13:22:24.441Z,52.37
2017-12-31T13:24:50.406Z,51.72
2017-12-31T13:27:16.344Z,52.32
2017-12-31T13:29:42.285Z,52.27
2017-12-31T13:32:08.285Z,52.03
2017-12-31T13:34:34.245Z,52.00
2017-12-31T13:37:00.189Z,51.53
2017-12-31T13:39:26.148Z,50.87
2017-12-31T13:41:52.089Z,50.32
2017-12-31T13:44:18.076Z,50.29
2017-12-31T13:46:44.041Z,50.42
2017-12-31T13:49:10.015Z,50.61
2017-12-31T13:51:36.070Z,50.47
2017-12-31T13:54:02.030Z,50.63
2017-12-31T13:56:27.975Z,51.16
2017-12-31T13:58:53.945Z,51.01
2017-12-31T14:01:19.882Z,51.00
2017-12-31T14:03:45.818Z,51.21
2017-12-31T14:06:11.761Z,51.09
2017-12-31T14:08:37.701Z,51.17
2017-12-31T14:11:03.660Z,51.19
2017-12-31T14:13:29.604Z,51.27
2017-12-31T14:15:55.560Z,51.42
2017-12-31T14:18:21.522Z,51.31
2017-12-31T14:20:47.492Z,51.20
2017-12-31T14:23:13.449Z,51.30
2017-12-31T14:25:39.413Z,51.42
2017-12-31T14:28:05.383Z,51.20
2017-12-31T14:30:31.341Z,50.74
2017-12-31T14:32:57.302Z,50.85
2017-12-31T14:35:23.242Z,50.97
2017-12-31T14:37:49.229Z,50.90
2017-12-31T14:40:15.183Z,51.17
2017-12-31T14:42:41.157Z,50.73
2017-12-31T14:45:07.108Z,51.19
2017-12-31T14:47:33.365Z,50.82
2017-12-31T14:49:59.321Z,50.92
2017-12-31T14:52:25.298Z,50.83
2017-12-31T14:54:51.500Z,51.34
2017-12-31T14:57:17.478Z,51.31
2017-12-31T14:59:43.615Z,51.11
2017-12-31T15:02:09.586Z,51.37
2017-12-31T15:04:35.581Z,51.02
2017-12-31T15:07:01.526Z,51.28
2017-12-31T15:09:27.496Z,51.23
2017-12-31T15:11:53.469Z,51.05
2017-12-31T15:14:19.425Z,50.77
2017-12-31T15:16:45.370Z,50.83
2017-12-31T15:19:11.329Z,50.87
2017-12-31T15:21:37.293Z,51.11
2017-12-31T15:24:03.266Z,50.56
2017-12-31T15:26:29.223Z,50.82
2017-12-31T15:28:55.257Z,50.41
2017-12-31T15:31:21.219Z,50.77
2017-12-31T15:33:47.194Z,50.92
2017-12-31T15:36:13.189Z,50.74
2017-12-31T15:38:39.136Z,50.85
2017-12-31T15:41:05.105Z,51.06
2017-12-31T15:43:31.045Z,51.01
2017-12-31T15:45:57.017Z,50.99
2017-12-31T15:48:23.018Z,51.01
2017-12-31T15:50:49.031Z,51.04
2017-12-31T15:53:14.986Z,50.98
2017-12-31T15:55:40.969Z,51.19
2017-12-31T15:58:06.952Z,50.94
2017-12-31T16:00:32.892Z,51.12
2017-12-31T16:02:58.856Z,51.08
2017-12-31T16:05:24.841Z,50.64
2017-12-31T16:07:50.792Z,50.65
2017-12-31T16:10:16.762Z,50.28
2017-12-31T16:12:42.743Z,50.37
2017-12-31T16:15:08.729Z,50.45
2017-12-31T16:17:34.669Z,50.43
2017-12-31T16:20:00.618Z,50.59
2017-12-31T16:22:26.565Z,50.63
2017-12-31T16:24:52.503Z,50.55
2017-12-31T16:27:18.437Z,50.65
2017-12-31T16:29:44.406Z,50.93
2017-12-31T16:32:10.372Z,51.09
2017-12-31T16:34:36.321Z,51.08
2017-12-31T16:37:02.272Z,50.89
2017-12-31T16:39:28.245Z,50.88
2017-12-31T16:41:54.204Z,50.99
2017-12-31T16:44:20.177Z,50.70
2017-12-31T16:46:46.118Z,50.90
2017-12-31T16:49:12.065Z,50.77
2017-12-31T16:51:38.025Z,50.51
2017-12-31T16:54:03.974Z,50.31
2017-12-31T16:56:29.990Z,50.13
2017-12-31T16:58:55.925Z,50.21
2017-12-31T17:01:21.887Z,50.30
2017-12-31T17:03:47.860Z,50.31
2017-12-31T17:06:13.794Z,50.29
2017-12-31T17:08:39.746Z,50.53
2017-12-31T17:11:05.698Z,50.43
2017-12-31T17:13:31.699Z,50.54
2017-12-31T17:15:57.649Z,50.41
2017-12-31T17:18:23.598Z,50.70
2017-12-31T17:20:49.553Z,50.67
2017-12-31T17:23:15.517Z,50.55
2017-12-31T17:25:41.475Z,50.85
2017-12-31T17:28:07.461Z,50.59
2017-12-31T17:30:33.410Z,50.68
2017-12-31T17:32:59.400Z,50.43
2017-12-31T17:35:25.333Z,50.93
2017-12-31T17:37:51.278Z,50.63
2017-12-31T17:40:17.214Z,50.57
2017-12-31T17:42:43.175Z,50.20
2017-12-31T17:45:09.130Z,50.09
2017-12-31T17:47:35.110Z,50.22
2017-12-31T17:50:01.050Z,50.10
2017-12-31T17:52:27.015Z,50.08
2017-12-31T17:54:52.957Z,50.33
2017-12-31T17:57:18.962Z,50.18
2017-12-31T17:59:44.894Z,50.16
2017-12-31T18:02:11.138Z,50.23
2017-12-31T18:04:37.130Z,50.26
2017-12-31T18:07:03.059Z,50.51
2017-12-31T18:09:29.021Z,50.57
2017-12-31T18:11:54.987Z,50.72
2017-12-31T18:14:20.960Z,50.51
2017-12-31T18:16:46.909Z,50.59
2017-12-31T18:19:12.893Z,50.49
2017-12-31T18:21:38.848Z,50.52
2017-12-31T18:24:04.836Z,50.47
2017-12-31T18:26:30.789Z,50.37
2017-12-31T18:28:56.758Z,50.25
2017-12-31T18:31:22.738Z,49.85
2017-12-31T18:33:48.667Z,50.16
2017-12-31T18:36:14.578Z,50.05
2017-12-31T18:38:40.523Z,49.99
2017-12-31T18:41:06.502Z,49.70
2017-12-31T18:43:32.441Z,50.07
2017-12-31T18:45:58.423Z,50.12
2017-12-31T18:48:24.374Z,50.13
2017-12-31T18:50:50.339Z,49.88
2017-12-31T18:53:16.301Z,49.93
2017-12-31T18:55:42.261Z,50.00
2017-12-31T18:58:08.238Z,50.02
2017-12-31T19:00:34.195Z,49.96
2017-12-31T19:03:00.158Z,50.16
2017-12-31T19:05:26.119Z,50.34
2017-12-31T19:07:52.081Z,50.33
2017-12-31T19:10:18.018Z,50.25
2017-12-31T19:12:43.975Z,50.06
2017-12-31T19:15:09.914Z,50.23
2017-12-31T19:17:35.904Z,50.20
2017-12-31T19:20:01.864Z,49.86
2017-12-31T19:22:27.840Z,49.78
2017-12-31T19:24:53.833Z,49.50
2017-12-31T19:27:19.786Z,49.62
2017-12-31T19:29:45.741Z,50.02
2017-12-31T19:32:11.692Z,49.65
2017-12-31T19:34:37.662Z,49.70
2017-12-31T19:37:03.637Z,49.87
2017-12-31T19:39:29.605Z,49.70
2017-12-31T19:41:55.554Z,49.72
2017-12-31T19:44:21.542Z,49.96
2017-12-31T19:46:47.518Z,49.99
2017-12-31T19:49:13.461Z,49.78
2017-12-31T19:51:39.399Z,49.86
2017-12-31T19:54:05.359Z,49.80
2017-12-31T19:56:31.308Z,49.95
2017-12-31T19:58:57.312Z,49.78
2017-12-31T20:01:23.273Z,49.95
2017-12-31T20:03:49.237Z,49.86
2017-12-31T20:06:15.204Z,49.89
2017-12-31T20:08:41.164Z,49.23
2017-12-31T20:11:07.114Z,49.35
2017-12-31T20:13:33.180Z,49.27
2017-12-31T20:15:59.130Z,49.47
2017-12-31T20:18:25.073Z,49.21
2017-12-31T20:20:51.075Z,49.17
2017-12-31T20:23:17.069Z,49.44
2017-12-31T20:25:43.038Z,49.22
2017-12-31T20:28:08.981Z,49.27
2017-12-31T20:30:34.957Z,49.62
2017-12-31T20:33:00.909Z,49.81
2017-12-31T20:35:26.861Z,49.88
2017-12-31T20:37:52.812Z,49.61
2017-12-31T20:40:18.752Z,49.46
2017-12-31T20:42:44.723Z,49.82
2017-12-31T20:45:10.670Z,49.83
2017-12-31T20:47:36.625Z,49.99
2017-12-31T20:50:02.591Z,50.09
2017-12-31T20:52:28.553Z,50.08
2017-12-31T20:54:54.507Z,49.51
2017-12-31T20:57:20.459Z,49.50
2017-12-31T20:59:46.420Z,49.48
2017-12-31T21:02:12.392Z,49.32
2017-12-31T21:04:38.346Z,49.33
2017-12-31T21:07:04.341Z,49.55
2017-12-31T21:09:30.281Z,49.49
2017-12-31T21:11:56.274Z,49.84
2017-12-31T21:14:22.234Z,49.86
2017-12-31T21:16:48.190Z,49.55
2017-12-31T21:19:14.151Z,49.84
2017-12-31T21:21:40.109Z,49.55
2017-12-31T21:24:06.158Z,49.75
2017-12-31T21:26:32.121Z,49.78
2017-12-31T21:28:58.075Z,49.88
2017-12-31T21:31:24.185Z,49.92
2017-12-31T21:33:50.125Z,49.84
2017-12-31T21:36:16.101Z,50.07
2017-12-31T21:38:42.045Z,49.92
2017-12-31T21:41:07.993Z,49.73
2017-12-31T21:43:33.961Z,49.62
2017-12-31T21:45:59.910Z,49.47
2017-12-31T21:48:25.882Z,49.27
2017-12-31T21:50:51.821Z,49.38
2017-12-31T21:53:17.802Z,49.43
2017-12-31T21:55:43.759Z,49.82
2017-12-31T21:58:09.769Z,49.39
2017-12-31T22:00:35.682Z,49.40
2017-12-31T22:03:01.629Z,49.44
2017-12-31T22:05:27.593Z,49.68
2017-12-31T22:07:53.560Z,49.86
2017-12-31T22:10:19.528Z,49.31
2017-12-31T22:12:45.470Z,49.68
2017-12-31T22:15:11.466Z,49.65
2017-12-31T22:17:37.417Z,49.96
2017-12-31T22:20:03.402Z,49.61
2017-12-31T22:22:29.348Z,49.98
2017-12-31T22:24:55.307Z,49.75
2017-12-31T22:27:21.258Z,49.75
2017-12-31T22:29:47.202Z,49.63
2017-12-31T22:32:13.150Z,49.50
2017-12-31T22:34:39.091Z,49.15
2017-12-31T22:37:05.086Z,49.16
2017-12-31T22:39:31.061Z,49.07
2017-12-31T22:41:57.014Z,49.31
2017-12-31T22:44:23.046Z,49.35
2017-12-31T22:46:49.010Z,49.33
2017-12-31T22:49:14.965Z,49.08
2017-12-31T22:51:40.938Z,49.20
2017-12-31T22:54:06.897Z,49.04
2017-12-31T22:56:32.842Z,49.30
2017-12-31T22:58:58.793Z,49.55
2017-12-31T23:01:24.781Z,49.59
2017-12-31T23:03:50.735Z,49.86
2017-12-31T23:06:16.674Z,49.74
2017-12-31T23:08:42.662Z,49.51
2017-12-31T23:11:08.609Z,49.78
2017-12-31T23:13:34.599Z,49.58
2017-12-31T23:16:00.538Z,49.48
2017-12-31T23:18:26.486Z,49.49
2017-12-31T23:20:52.421Z,49.59
2017-12-31T23:23:18.442Z,49.55
2017-12-31T23:25:44.410Z,49.35
2017-12-31T23:28:10.357Z,49.57
2017-12-31T23:30:36.315Z,49.57
2017-12-31T23:33:02.262Z,49.61
2017-12-31T23:35:28.222Z,49.70
2017-12-31T23:37:54.185Z,49.62
2017-12-31T23:40:20.138Z,49.41
2017-12-31T23:42:46.106Z,49.38
2017-12-31T23:45:12.234Z,49.42
2017-12-31T23:47:38.224Z,49.60
2017-12-31T23:50:04.172Z,49.41
2017-12-31T23:52:30.126Z,49.37
2017-12-31T23:54:56.079Z,49.79
2017-12-31T23:57:22.026Z,49.57
2017-12-31T23:59:48.138Z,49.49
